Time;durP1;ratioP1;P1;durP2;ratioP2;P2;SDS_P1;SDS_P2;PMS_P1;PMS_P2;Temp;Humidity;BMP_temperature;BMP_pressure;BME280_temperature;BME280_humidity;BME280_pressure;Samples;Min_cycle;Max_cycle;Signal;HPM_P1;HPM_P2
2022/05/08 00:00:16;;;;;;;6.18;5.25;;;20.40;99.90;;;;;;4209474;28;20234;-76
2022/05/08 00:02:19;;;;;;;5.57;4.82;;;20.40;99.90;;;;;;4210230;28;20252;-76
2022/05/08 00:04:23;;;;;;;5.47;4.97;;;20.40;99.90;;;;;;4209588;28;20303;-76
2022/05/08 00:06:25;;;;;;;5.88;5.28;;;20.40;99.90;;;;;;4209633;28;20219;-76
2022/05/08 00:08:29;;;;;;;6.63;5.93;;;20.40;99.90;;;;;;4210046;28;20214;-76
2022/05/08 00:10:31;;;;;;;6.30;5.13;;;20.40;99.90;;;;;;4208619;28;20234;-76
2022/05/08 00:12:33;;;;;;;6.45;5.10;;;20.40;99.90;;;;;;4209627;28;20248;-76
2022/05/08 00:14:36;;;;;;;5.55;4.93;;;20.30;99.90;;;;;;4209387;28;20226;-76
2022/05/08 00:16:38;;;;;;;5.80;5.13;;;20.30;99.90;;;;;;4209361;28;20218;-77
2022/05/08 00:18:40;;;;;;;6.25;5.38;;;20.40;99.90;;;;;;4209451;28;20686;-76
2022/05/08 00:20:44;;;;;;;6.35;5.10;;;20.40;99.90;;;;;;4209447;28;20616;-76
2022/05/08 00:22:47;;;;;;;6.45;5.30;;;20.30;99.90;;;;;;4209295;28;20223;-76
2022/05/08 00:24:49;;;;;;;6.75;5.35;;;20.30;99.90;;;;;;4208671;28;20226;-76
2022/05/08 00:26:52;;;;;;;7.80;5.28;;;20.30;99.90;;;;;;4209038;28;20275;-76
2022/05/08 00:28:55;;;;;;;6.03;5.43;;;20.30;99.90;;;;;;4209787;28;20216;-76
2022/05/08 00:30:57;;;;;;;5.43;4.50;;;20.40;99.90;;;;;;4208963;28;20219;-76
2022/05/08 00:33:00;;;;;;;5.95;4.70;;;20.40;99.90;;;;;;4209892;28;20279;-76
2022/05/08 00:35:02;;;;;;;5.97;5.28;;;20.30;99.90;;;;;;4208668;28;20215;-76
2022/05/08 00:37:06;;;;;;;6.00;5.28;;;20.30;99.90;;;;;;4205936;28;20214;-76
2022/05/08 00:39:08;;;;;;;6.05;4.80;;;20.40;99.90;;;;;;4209631;28;20222;-76
2022/05/08 00:41:11;;;;;;;6.38;4.88;;;20.30;99.90;;;;;;4209530;28;20222;-76
2022/05/08 00:43:32;;;;;;;5.75;4.85;;;20.30;99.90;;;;;;4209308;28;20272;-76
2022/05/08 00:45:34;;;;;;;5.90;4.90;;;20.30;99.90;;;;;;4207971;28;20230;-76
2022/05/08 00:47:37;;;;;;;5.93;5.32;;;20.30;99.90;;;;;;4207866;28;20268;-76
2022/05/08 00:49:40;;;;;;;5.75;5.18;;;20.30;99.90;;;;;;4208833;28;20227;-76
2022/05/08 00:51:47;;;;;;;5.70;5.10;;;20.30;99.90;;;;;;4208194;28;20222;-76
2022/05/08 00:53:52;;;;;;;5.72;4.93;;;20.30;99.90;;;;;;4208314;28;20287;-76
2022/05/08 00:55:56;;;;;;;6.22;5.50;;;20.30;99.90;;;;;;4208493;28;20206;-76
2022/05/08 00:58:00;;;;;;;5.18;4.38;;;20.30;99.90;;;;;;4208586;28;20226;-76
2022/05/08 01:00:05;;;;;;;5.07;4.57;;;20.30;99.90;;;;;;4207826;28;20222;-76
2022/05/08 01:02:07;;;;;;;5.47;4.90;;;20.30;99.90;;;;;;4208387;28;20720;-76
2022/05/08 01:04:10;;;;;;;5.47;4.90;;;20.30;99.90;;;;;;4208228;28;20276;-76
2022/05/08 01:06:13;;;;;;;5.00;4.50;;;20.30;99.90;;;;;;4208189;28;20242;-76
2022/05/08 01:08:16;;;;;;;5.15;4.50;;;20.30;99.90;;;;;;4208038;28;20226;-76
2022/05/08 01:10:20;;;;;;;5.55;5.05;;;20.30;99.90;;;;;;4208027;28;20635;-76
2022/05/08 01:12:24;;;;;;;5.72;5.10;;;20.30;99.90;;;;;;4207982;28;20218;-76
2022/05/08 01:14:26;;;;;;;5.05;4.28;;;20.30;99.90;;;;;;4208144;28;20234;-76
2022/05/08 01:16:29;;;;;;;5.32;4.78;;;20.30;99.90;;;;;;4208219;28;20218;-76
2022/05/08 01:18:31;;;;;;;5.10;4.60;;;20.30;99.90;;;;;;4208100;28;20974;-76
2022/05/08 01:20:34;;;;;;;5.13;4.47;;;20.30;99.90;;;;;;4208189;28;20230;-76
2022/05/08 01:22:38;;;;;;;4.93;4.50;;;20.30;99.90;;;;;;4206722;28;20222;-76
2022/05/08 01:24:41;;;;;;;5.47;4.78;;;20.30;99.90;;;;;;4208085;28;20207;-76
2022/05/08 01:26:43;;;;;;;6.60;4.70;;;20.30;99.90;;;;;;4206895;28;20815;-76
2022/05/08 01:28:45;;;;;;;4.95;4.35;;;20.30;99.90;;;;;;4208262;28;20827;-76
2022/05/08 01:30:49;;;;;;;4.88;4.13;;;20.30;99.90;;;;;;4208916;28;20260;-76
2022/05/08 01:32:51;;;;;;;5.40;4.30;;;20.30;99.90;;;;;;4207847;28;20592;-76
2022/05/08 01:34:54;;;;;;;4.38;3.97;;;20.20;99.90;;;;;;4208346;28;20284;-76
2022/05/08 01:36:56;;;;;;;4.85;4.40;;;20.30;99.90;;;;;;4206536;28;20251;-76
2022/05/08 01:39:00;;;;;;;5.93;4.70;;;20.30;99.90;;;;;;4207709;28;20624;-76
2022/05/08 01:41:04;;;;;;;6.03;4.55;;;20.20;99.90;;;;;;4208451;28;20272;-76
2022/05/08 01:43:07;;;;;;;5.00;4.50;;;20.20;99.90;;;;;;4206849;28;20280;-76
2022/05/08 01:45:10;;;;;;;4.55;4.03;;;20.30;99.90;;;;;;4207156;28;20284;-76
2022/05/08 01:49:33;;;;;;;5.30;4.30;;;20.30;99.90;;;;;;4208143;28;20209;-76
2022/05/08 01:51:35;;;;;;;4.82;4.25;;;20.30;99.90;;;;;;4207731;28;20207;-76
2022/05/08 01:53:38;;;;;;;4.47;3.97;;;20.30;99.90;;;;;;4208225;28;20601;-76
2022/05/08 01:55:42;;;;;;;5.03;4.03;;;20.30;99.90;;;;;;4208321;28;20268;-76
2022/05/08 01:57:45;;;;;;;5.15;4.65;;;20.20;99.90;;;;;;4208119;28;20222;-76
2022/05/08 01:59:48;;;;;;;5.00;4.38;;;20.30;99.90;;;;;;4207117;28;20274;-76
2022/05/08 02:01:50;;;;;;;4.40;3.90;;;20.20;99.90;;;;;;4207479;28;20218;-76
2022/05/08 02:03:53;;;;;;;4.20;3.80;;;20.30;99.90;;;;;;4208078;28;20271;-76
2022/05/08 02:05:55;;;;;;;5.38;3.92;;;20.20;99.90;;;;;;4207619;28;20645;-76
2022/05/08 02:07:57;;;;;;;4.20;3.80;;;20.20;99.90;;;;;;4208329;28;20558;-77
2022/05/08 02:10:00;;;;;;;5.25;4.03;;;20.20;99.90;;;;;;4207438;28;20974;-76
2022/05/08 02:12:04;;;;;;;4.35;3.90;;;20.20;99.90;;;;;;4207518;28;20267;-76
2022/05/08 02:14:07;;;;;;;4.80;4.30;;;20.30;99.90;;;;;;4208151;28;20226;-76
2022/05/08 02:16:11;;;;;;;4.47;4.07;;;20.20;99.90;;;;;;4207019;28;20227;-76
2022/05/08 02:18:13;;;;;;;4.70;4.18;;;20.20;99.90;;;;;;4207668;28;20275;-76
2022/05/08 02:20:16;;;;;;;4.32;3.92;;;20.20;99.90;;;;;;4210446;28;20218;-76
2022/05/08 02:22:18;;;;;;;5.13;4.57;;;20.20;99.90;;;;;;4210934;28;20271;-76
2022/05/08 02:24:20;;;;;;;5.18;3.97;;;20.20;99.90;;;;;;4210253;28;20283;-76
2022/05/08 02:26:23;;;;;;;4.65;3.95;;;20.20;99.90;;;;;;4210543;28;20284;-76
2022/05/08 02:28:27;;;;;;;4.28;3.88;;;20.30;99.90;;;;;;4211187;28;20214;-76
2022/05/08 02:30:29;;;;;;;3.88;3.47;;;20.20;99.90;;;;;;4210903;28;20690;-76
2022/05/08 02:32:32;;;;;;;4.05;3.65;;;20.20;99.90;;;;;;4210429;28;20686;-76
2022/05/08 02:34:34;;;;;;;4.13;3.53;;;20.20;99.90;;;;;;4211393;28;20611;-76
2022/05/08 02:36:36;;;;;;;4.82;3.72;;;20.20;99.90;;;;;;4209710;28;20319;-77
2022/05/08 02:38:39;;;;;;;4.55;3.90;;;20.20;99.90;;;;;;4210792;28;20218;-76
2022/05/08 02:40:42;;;;;;;3.95;3.63;;;20.20;99.90;;;;;;4209784;28;20608;-76
2022/05/08 02:42:44;;;;;;;4.05;3.60;;;20.20;99.90;;;;;;4210393;28;20295;-76
2022/05/08 02:44:47;;;;;;;5.70;4.18;;;20.20;99.90;;;;;;4210750;28;20670;-76
2022/05/08 02:46:50;;;;;;;3.95;3.58;;;20.20;99.90;;;;;;4210395;28;20279;-76
2022/05/08 02:48:52;;;;;;;4.25;3.85;;;20.20;99.90;;;;;;4208420;28;20223;-76
2022/05/08 02:50:55;;;;;;;4.40;3.95;;;20.20;99.90;;;;;;4210979;28;20267;-76
2022/05/08 02:52:57;;;;;;;5.05;3.72;;;20.20;99.90;;;;;;4209487;28;20215;-76
2022/05/08 02:58:32;;;;;;;4.15;3.75;;;20.20;99.90;;;;;;4211384;28;20309;-76
2022/05/08 02:59:42;;;;;;;4.03;3.63;;;20.10;99.90;;;;;;4210350;28;20227;-76
2022/05/08 03:01:46;;;;;;;3.88;3.58;;;20.20;99.90;;;;;;4210754;28;20566;-76
2022/05/08 03:03:48;;;;;;;3.53;3.13;;;20.10;99.90;;;;;;4210208;28;20231;-76
2022/05/08 03:05:50;;;;;;;3.75;3.38;;;20.20;99.90;;;;;;4210552;28;20307;-76
2022/05/08 03:07:53;;;;;;;3.88;3.50;;;20.10;99.90;;;;;;4210627;28;20600;-76
2022/05/08 03:09:55;;;;;;;3.67;3.38;;;20.10;99.90;;;;;;4210636;28;20707;-76
2022/05/08 03:11:56;;;;;;;3.85;3.45;;;20.20;99.90;;;;;;4210563;28;20244;-76
2022/05/08 03:14:00;;;;;;;3.80;3.50;;;20.20;99.90;;;;;;4208859;28;20281;-76
2022/05/08 03:16:03;;;;;;;4.00;3.70;;;20.10;99.90;;;;;;4209736;28;20219;-76
2022/05/08 03:18:06;;;;;;;3.90;3.15;;;20.10;99.90;;;;;;4210462;28;20350;-76
2022/05/08 03:20:11;;;;;;;4.28;3.78;;;20.10;99.90;;;;;;4209911;28;20276;-76
2022/05/08 03:22:14;;;;;;;3.55;3.20;;;20.10;99.90;;;;;;4211100;28;20288;-76
2022/05/08 03:24:16;;;;;;;4.07;3.67;;;20.10;99.90;;;;;;4210244;28;20670;-76
2022/05/08 03:26:20;;;;;;;4.18;3.78;;;20.10;99.90;;;;;;4210564;28;20268;-76
2022/05/08 03:28:22;;;;;;;3.72;3.42;;;20.10;99.90;;;;;;4210254;28;20351;-76
2022/05/08 03:30:25;;;;;;;3.95;3.42;;;20.10;99.90;;;;;;4209282;28;20295;-76
2022/05/08 03:32:27;;;;;;;4.28;3.55;;;20.10;99.90;;;;;;4210378;28;20230;-76
2022/05/08 03:34:31;;;;;;;3.83;3.33;;;20.10;99.90;;;;;;4210250;28;20234;-76
2022/05/08 03:36:34;;;;;;;3.88;3.47;;;20.10;99.90;;;;;;4211081;28;20276;-76
2022/05/08 03:38:36;;;;;;;3.72;3.33;;;20.10;99.90;;;;;;4211276;28;20275;-76
2022/05/08 03:40:38;;;;;;;3.58;3.28;;;20.10;99.90;;;;;;4210444;28;20359;-76
2022/05/08 03:42:42;;;;;;;4.00;3.65;;;20.10;99.90;;;;;;4210296;28;20267;-77
2022/05/08 03:44:45;;;;;;;3.78;3.38;;;20.10;99.90;;;;;;4209231;28;20222;-76
2022/05/08 03:46:47;;;;;;;3.72;3.42;;;20.10;99.90;;;;;;4209607;28;20287;-76
2022/05/08 03:48:50;;;;;;;3.35;3.05;;;20.10;99.90;;;;;;4209947;28;20558;-76
2022/05/08 03:50:53;;;;;;;3.38;3.05;;;20.00;99.90;;;;;;4210020;28;20283;-76
2022/05/08 03:52:56;;;;;;;3.83;3.33;;;20.00;99.90;;;;;;4209103;28;20256;-76
2022/05/08 03:54:59;;;;;;;3.75;3.30;;;20.00;99.90;;;;;;4207382;28;20267;-76
2022/05/08 03:57:02;;;;;;;4.03;3.58;;;20.10;99.90;;;;;;4209663;28;20222;-76
2022/05/08 03:59:04;;;;;;;3.67;3.17;;;20.00;99.90;;;;;;4209968;28;20241;-76
2022/05/08 04:01:07;;;;;;;3.45;3.13;;;20.10;99.90;;;;;;4209396;28;20248;-76
2022/05/08 04:03:09;;;;;;;3.72;3.40;;;20.00;99.90;;;;;;4210118;28;20226;-76
2022/05/08 04:05:12;;;;;;;3.50;3.20;;;20.00;99.90;;;;;;4209212;28;20242;-76
2022/05/08 04:07:16;;;;;;;4.32;3.35;;;20.10;99.90;;;;;;4209117;28;20371;-76
2022/05/08 04:09:18;;;;;;;3.70;3.40;;;20.00;99.90;;;;;;4210134;28;20350;-76
2022/05/08 04:11:20;;;;;;;3.35;3.05;;;20.00;99.90;;;;;;4209472;28;20222;-76
2022/05/08 04:13:23;;;;;;;3.55;3.25;;;20.00;99.90;;;;;;4208881;28;20268;-76
2022/05/08 04:17:45;;;;;;;6.28;3.25;;;20.00;99.90;;;;;;4209128;28;20206;-76
2022/05/08 04:19:47;;;;;;;3.40;3.10;;;20.00;99.90;;;;;;4209444;28;20234;-76
2022/05/08 04:21:50;;;;;;;4.45;3.30;;;20.00;99.90;;;;;;4208072;28;20230;-76
2022/05/08 04:26:13;;;;;;;3.60;3.30;;;20.00;99.90;;;;;;4209868;28;20210;-76
2022/05/08 04:28:16;;;;;;;3.42;3.13;;;20.00;99.90;;;;;;4209199;28;20295;-76
2022/05/08 04:30:18;;;;;;;3.67;3.38;;;20.10;99.90;;;;;;4209486;28;20218;-76
2022/05/08 04:32:21;;;;;;;3.60;3.30;;;20.00;99.90;;;;;;4208955;28;20648;-76
2022/05/08 04:34:23;;;;;;;3.60;3.20;;;20.00;99.90;;;;;;4207773;28;20283;-77
2022/05/08 04:36:25;;;;;;;3.45;3.15;;;20.00;99.90;;;;;;4210230;28;20230;-83
2022/05/08 04:38:27;;;;;;;3.42;2.80;;;20.00;99.90;;;;;;4210711;28;20319;-83
2022/05/08 04:40:31;;;;;;;4.38;3.15;;;20.00;99.90;;;;;;4211533;28;20222;-83
2022/05/08 04:42:34;;;;;;;2.97;2.72;;;20.00;99.90;;;;;;4210231;28;20632;-83
2022/05/08 04:44:36;;;;;;;3.85;3.17;;;20.00;99.90;;;;;;4210133;28;20275;-83
2022/05/08 04:46:38;;;;;;;4.22;3.10;;;20.00;99.90;;;;;;4210859;28;20215;-82
2022/05/08 04:48:42;;;;;;;3.88;3.47;;;20.00;99.90;;;;;;4210909;28;20272;-83
2022/05/08 04:50:44;;;;;;;4.60;3.47;;;20.10;99.90;;;;;;4210830;28;20275;-83
2022/05/08 04:52:46;;;;;;;3.65;2.95;;;20.00;99.90;;;;;;4210209;28;20219;-83
2022/05/08 04:54:49;;;;;;;3.70;3.03;;;20.00;99.90;;;;;;4210683;28;20706;-83
2022/05/08 04:56:52;;;;;;;3.42;3.10;;;20.00;99.90;;;;;;4210801;28;20211;-83
2022/05/08 04:58:55;;;;;;;3.78;2.97;;;20.10;99.90;;;;;;4209909;28;20214;-83
2022/05/08 05:00:58;;;;;;;3.80;3.08;;;20.00;99.90;;;;;;4210789;28;20214;-83
2022/05/08 05:03:01;;;;;;;3.50;3.20;;;20.00;99.90;;;;;;4208807;28;20202;-83
2022/05/08 05:05:03;;;;;;;4.38;3.13;;;20.00;99.90;;;;;;4210119;28;20237;-83
2022/05/08 05:07:07;;;;;;;4.25;3.15;;;20.00;99.90;;;;;;4210138;28;20307;-82
2022/05/08 05:09:09;;;;;;;3.33;2.88;;;20.00;99.90;;;;;;4210262;28;20279;-83
2022/05/08 05:11:11;;;;;;;3.22;2.92;;;20.00;99.90;;;;;;4210302;28;20262;-83
2022/05/08 05:13:15;;;;;;;4.00;3.45;;;20.00;99.90;;;;;;4210431;28;20693;-83
2022/05/08 05:15:18;;;;;;;7.30;2.95;;;20.00;99.90;;;;;;4210073;28;20674;-83
2022/05/08 05:17:20;;;;;;;3.72;2.85;;;20.00;99.90;;;;;;4210264;28;21214;-83
2022/05/08 05:19:22;;;;;;;3.88;3.58;;;20.00;99.90;;;;;;4209990;28;20367;-84
2022/05/08 05:21:25;;;;;;;4.60;3.08;;;20.00;99.90;;;;;;4209564;28;20276;-84
2022/05/08 05:23:27;;;;;;;3.80;3.10;;;20.00;99.90;;;;;;4209828;28;20674;-83
2022/05/08 05:25:30;;;;;;;3.22;2.92;;;19.90;99.90;;;;;;4209707;28;20572;-83
2022/05/08 05:27:32;;;;;;;3.92;3.55;;;19.90;99.90;;;;;;4210523;28;20279;-83
2022/05/08 05:29:36;;;;;;;3.63;3.22;;;19.90;99.90;;;;;;4209851;28;20230;-83
2022/05/08 05:31:38;;;;;;;3.70;2.90;;;19.90;99.90;;;;;;4210116;28;20222;-83
2022/05/08 05:33:41;;;;;;;3.58;2.95;;;19.90;99.90;;;;;;4210288;28;20226;-83
2022/05/08 05:35:43;;;;;;;3.97;3.33;;;19.90;99.90;;;;;;4210523;28;20219;-83
2022/05/08 05:37:46;;;;;;;3.50;3.00;;;19.90;99.90;;;;;;4210285;28;20214;-84
2022/05/08 05:39:48;;;;;;;3.40;2.85;;;19.90;99.90;;;;;;4209809;28;20214;-83
2022/05/08 05:41:50;;;;;;;3.28;3.03;;;19.90;99.90;;;;;;4210099;28;20263;-84
2022/05/08 05:43:53;;;;;;;3.40;2.78;;;19.90;99.90;;;;;;4209686;28;20758;-83
2022/05/08 05:48:16;;;;;;;3.55;2.70;;;20.00;99.90;;;;;;4210969;28;20613;-83
2022/05/08 05:50:19;;;;;;;4.18;3.22;;;20.00;99.90;;;;;;4208952;28;20226;-83
2022/05/08 05:52:22;;;;;;;6.13;3.35;;;20.00;99.90;;;;;;4209475;28;20211;-83
2022/05/08 05:54:24;;;;;;;3.72;3.33;;;19.90;99.90;;;;;;4209980;28;20211;-83
2022/05/08 05:56:26;;;;;;;3.22;2.85;;;20.00;99.90;;;;;;4213286;28;20667;-83
2022/05/08 05:58:29;;;;;;;3.20;2.90;;;20.00;99.90;;;;;;4213777;28;20632;-83
2022/05/08 06:00:32;;;;;;;3.67;3.17;;;19.90;99.90;;;;;;4212349;28;20631;-84
2022/05/08 06:02:35;;;;;;;4.25;3.25;;;19.90;99.90;;;;;;4213218;28;20236;-83
2022/05/08 06:04:38;;;;;;;4.55;3.17;;;20.00;99.90;;;;;;4213188;28;20218;-83
2022/05/08 06:06:40;;;;;;;3.83;3.10;;;20.00;99.90;;;;;;4212082;28;20222;-83
2022/05/08 06:08:43;;;;;;;4.95;3.58;;;20.00;99.90;;;;;;4213421;28;20686;-83
2022/05/08 06:10:45;;;;;;;3.83;3.03;;;20.00;99.90;;;;;;4212818;28;20218;-82
2022/05/08 06:12:47;;;;;;;3.47;3.10;;;20.00;99.90;;;;;;4212166;28;20256;-83
2022/05/08 06:14:50;;;;;;;4.90;3.40;;;20.00;99.90;;;;;;4213022;28;20256;-83
2022/05/08 06:16:54;;;;;;;3.42;3.10;;;19.90;99.90;;;;;;4212675;28;20229;-83
2022/05/08 06:18:57;;;;;;;3.90;3.08;;;19.90;99.90;;;;;;4213549;28;20214;-83
2022/05/08 06:21:00;;;;;;;3.20;2.90;;;19.90;99.90;;;;;;4211096;28;20279;-82
2022/05/08 06:23:02;;;;;;;3.97;3.05;;;19.90;99.90;;;;;;4213329;28;20290;-83
2022/05/08 06:25:05;;;;;;;3.67;3.10;;;19.90;99.90;;;;;;4213069;28;20210;-83
2022/05/08 06:27:08;;;;;;;3.40;3.10;;;20.00;99.90;;;;;;4212794;28;20230;-83
2022/05/08 06:29:10;;;;;;;3.85;3.00;;;20.00;99.90;;;;;;4212905;28;20238;-83
2022/05/08 06:31:15;;;;;;;3.45;2.90;;;20.00;99.90;;;;;;4212622;28;20295;-83
2022/05/08 06:33:18;;;;;;;3.50;3.10;;;20.00;99.90;;;;;;4211796;28;20226;-83
2022/05/08 06:35:22;;;;;;;3.47;3.17;;;20.00;99.90;;;;;;4213169;28;20218;-83
2022/05/08 06:37:24;;;;;;;4.53;3.40;;;20.00;99.90;;;;;;4212232;28;20259;-83
2022/05/08 06:39:26;;;;;;;4.03;2.70;;;20.00;99.90;;;;;;4212291;28;20280;-83
2022/05/08 06:41:29;;;;;;;3.05;2.75;;;20.00;99.90;;;;;;4211769;28;20222;-82
2022/05/08 06:43:31;;;;;;;3.85;3.10;;;20.00;99.90;;;;;;4211296;28;20667;-83
2022/05/08 06:45:34;;;;;;;3.47;3.15;;;20.00;99.90;;;;;;4211874;28;20218;-84
2022/05/08 06:47:36;;;;;;;3.50;3.20;;;20.00;99.90;;;;;;4212464;28;20223;-82
2022/05/08 06:49:39;;;;;;;4.90;3.30;;;20.00;99.90;;;;;;4211425;28;20648;-76
2022/05/08 06:51:44;;;;;;;3.53;2.83;;;20.00;99.90;;;;;;4208499;28;20265;-76
2022/05/08 06:53:46;;;;;;;3.55;3.25;;;20.00;99.90;;;;;;4210150;28;20268;-76
2022/05/08 06:55:49;;;;;;;3.92;3.38;;;20.00;99.90;;;;;;4207222;28;20275;-76
2022/05/08 06:57:51;;;;;;;4.47;2.95;;;20.00;99.90;;;;;;4209614;28;20242;-76
2022/05/08 07:02:24;;;;;;;4.65;3.00;;;20.00;99.90;;;;;;4175583;28;20637;-76
2022/05/08 07:04:27;;;;;;;3.67;2.90;;;20.00;99.90;;;;;;4192252;28;20264;-76
2022/05/08 07:06:30;;;;;;;4.82;2.88;;;20.00;99.90;;;;;;4210473;28;20226;-76
2022/05/08 07:08:35;;;;;;;5.72;3.40;;;20.00;99.90;;;;;;4209365;28;20242;-76
2022/05/08 07:10:37;;;;;;;4.38;3.08;;;20.00;99.90;;;;;;4209661;28;20234;-76
2022/05/08 07:12:39;;;;;;;4.80;2.90;;;20.00;99.90;;;;;;4211053;28;20263;-76
2022/05/08 07:14:42;;;;;;;3.65;3.30;;;20.00;99.90;;;;;;4209741;28;20245;-76
2022/05/08 07:16:44;;;;;;;3.30;3.00;;;20.00;99.90;;;;;;4210565;28;20218;-77
2022/05/08 07:18:47;;;;;;;4.88;3.30;;;20.00;99.90;;;;;;4210744;28;20256;-76
2022/05/08 07:20:49;;;;;;;3.72;2.97;;;20.10;99.90;;;;;;4210578;28;20260;-76
2022/05/08 07:22:52;;;;;;;4.40;3.35;;;20.10;99.90;;;;;;4210160;28;20211;-76
2022/05/08 07:24:57;;;;;;;4.45;3.42;;;20.00;99.90;;;;;;4207451;28;20260;-76
2022/05/08 07:26:59;;;;;;;3.50;3.20;;;20.10;99.90;;;;;;4209957;28;20276;-76
2022/05/08 07:29:02;;;;;;;4.53;3.10;;;20.00;99.90;;;;;;4210305;28;20575;-76
2022/05/08 07:31:04;;;;;;;4.13;2.83;;;20.10;99.90;;;;;;4209837;28;20222;-76
2022/05/08 07:33:07;;;;;;;3.08;2.75;;;20.00;99.90;;;;;;4209950;28;20267;-76
2022/05/08 07:37:30;;;;;;;4.75;3.13;;;20.10;99.90;;;;;;4209900;28;20570;-76
2022/05/08 07:39:32;;;;;;;5.00;3.30;;;20.10;99.90;;;;;;4210574;28;20256;-76
2022/05/08 07:41:36;;;;;;;3.67;3.30;;;20.10;99.90;;;;;;4209252;28;20240;-76
2022/05/08 07:43:39;;;;;;;3.72;2.80;;;20.10;99.90;;;;;;4211189;28;20215;-76
2022/05/08 07:45:42;;;;;;;4.32;3.15;;;20.20;99.90;;;;;;4211082;28;20283;-76
2022/05/08 07:47:45;;;;;;;4.78;3.30;;;20.10;99.90;;;;;;4210564;28;20347;-76
2022/05/08 07:49:47;;;;;;;3.78;3.38;;;20.10;99.90;;;;;;4209183;28;20633;-76
2022/05/08 07:51:50;;;;;;;4.47;3.10;;;20.10;99.90;;;;;;4211020;28;20214;-76
2022/05/08 07:53:52;;;;;;;5.80;3.28;;;20.20;99.90;;;;;;4211176;28;20210;-76
2022/05/08 07:55:54;;;;;;;3.33;3.05;;;20.20;99.90;;;;;;4210654;28;20308;-76
2022/05/08 07:57:58;;;;;;;3.88;3.08;;;20.30;99.90;;;;;;4209890;28;20717;-76
2022/05/08 08:00:02;;;;;;;3.35;3.05;;;20.20;99.90;;;;;;4210493;28;20219;-76
2022/05/08 08:02:05;;;;;;;5.00;3.20;;;20.20;99.90;;;;;;4210114;28;20271;-76
2022/05/08 08:04:08;;;;;;;3.42;3.13;;;20.30;99.90;;;;;;4209818;28;20259;-76
2022/05/08 08:06:11;;;;;;;3.92;2.90;;;20.30;99.90;;;;;;4210075;28;20238;-76
2022/05/08 08:08:14;;;;;;;3.22;2.92;;;20.30;99.90;;;;;;4210094;28;20279;-76
2022/05/08 08:10:17;;;;;;;4.28;3.10;;;20.30;99.90;;;;;;4210690;28;20287;-76
2022/05/08 08:12:20;;;;;;;3.47;3.17;;;20.30;99.90;;;;;;4210952;28;20230;-76
2022/05/08 08:14:24;;;;;;;4.57;3.30;;;20.30;99.90;;;;;;4210603;28;20214;-76
2022/05/08 08:16:26;;;;;;;5.32;3.30;;;20.30;99.90;;;;;;4208277;28;20612;-76
2022/05/08 08:18:29;;;;;;;3.65;2.90;;;20.30;99.90;;;;;;4209857;28;20279;-76
2022/05/08 08:20:31;;;;;;;3.17;2.78;;;20.30;99.90;;;;;;4210482;28;20352;-76
2022/05/08 08:22:33;;;;;;;3.00;2.50;;;20.40;99.90;;;;;;4209658;28;20222;-76
2022/05/08 08:24:36;;;;;;;3.35;2.97;;;20.30;99.90;;;;;;4210079;28;20298;-76
2022/05/08 08:26:40;;;;;;;4.82;3.15;;;20.30;99.90;;;;;;4208424;28;20355;-76
2022/05/08 08:28:42;;;;;;;4.15;3.17;;;20.30;99.90;;;;;;4209305;28;20236;-76
2022/05/08 08:30:46;;;;;;;4.00;3.28;;;20.40;99.90;;;;;;4209877;28;20219;-76
2022/05/08 08:32:49;;;;;;;4.25;3.05;;;20.30;99.90;;;;;;4209009;28;20283;-76
2022/05/08 08:34:53;;;;;;;3.65;3.13;;;20.40;99.90;;;;;;4209916;28;20210;-76
2022/05/08 08:36:55;;;;;;;4.28;3.17;;;20.40;99.90;;;;;;4209980;28;20643;-77
2022/05/08 08:38:57;;;;;;;4.40;3.17;;;20.40;99.90;;;;;;4209036;28;20973;-76
2022/05/08 08:41:04;;;;;;;4.78;3.53;;;20.40;99.90;;;;;;4207427;28;20259;-76
2022/05/08 08:43:07;;;;;;;5.28;3.53;;;20.40;99.90;;;;;;4205450;28;20230;-76
2022/05/08 08:47:43;;;;;;;3.92;3.33;;;20.40;99.90;;;;;;4165765;28;20670;-76
2022/05/08 08:49:52;;;;;;;5.47;3.47;;;20.40;99.90;;;;;;4208116;28;20295;-76
2022/05/08 08:51:54;;;;;;;3.47;3.17;;;20.40;99.90;;;;;;4210121;28;20272;-76
2022/05/08 08:53:57;;;;;;;3.28;2.97;;;20.40;99.90;;;;;;4209588;28;20214;-77
2022/05/08 08:56:01;;;;;;;4.35;3.42;;;20.40;99.90;;;;;;4209492;28;20229;-76
2022/05/08 08:58:03;;;;;;;4.05;3.30;;;20.40;99.90;;;;;;4209829;28;20222;-76
2022/05/08 09:00:08;;;;;;;4.85;3.47;;;20.40;99.90;;;;;;4209880;28;20223;-76
2022/05/08 09:02:17;;;;;;;3.92;3.20;;;20.40;99.90;;;;;;4208840;28;20214;-76
2022/05/08 09:04:22;;;;;;;3.83;3.05;;;20.50;99.90;;;;;;4209924;28;20633;-76
2022/05/08 09:06:24;;;;;;;6.53;3.45;;;20.40;99.90;;;;;;4171744;28;20672;-82
2022/05/08 09:08:28;;;;;;;5.15;3.38;;;20.40;99.90;;;;;;4178802;28;20281;-83
2022/05/08 09:10:36;;;;;;;5.05;3.20;;;20.50;99.90;;;;;;4178241;28;20243;-83
2022/05/08 09:12:39;;;;;;;4.35;3.25;;;20.50;99.90;;;;;;4178326;28;20277;-76
2022/05/08 09:14:41;;;;;;;4.25;3.22;;;20.40;99.90;;;;;;4174178;28;20254;-76
2022/05/08 09:16:53;;;;;;;4.18;3.03;;;20.50;99.90;;;;;;4173433;28;20215;-76
2022/05/08 09:18:55;;;;;;;3.30;2.97;;;20.50;99.90;;;;;;4176440;28;20329;-76
2022/05/08 09:21:54;;;;;;;4.03;3.33;;;20.50;99.90;;;;;;4175975;28;20254;-76
2022/05/08 09:23:23;;;;;;;4.25;3.40;;;20.50;99.90;;;;;;4175905;28;20699;-76
2022/05/08 09:25:25;;;;;;;4.53;3.58;;;20.50;99.90;;;;;;4176294;28;20560;-76
2022/05/08 09:27:28;;;;;;;4.85;2.95;;;20.50;99.90;;;;;;4176336;28;20714;-76
2022/05/08 09:29:30;;;;;;;5.43;3.30;;;20.50;99.90;;;;;;4176274;28;20297;-76
2022/05/08 09:31:39;;;;;;;4.90;3.17;;;20.50;99.90;;;;;;4176520;28;20282;-77
2022/05/08 09:33:44;;;;;;;5.50;3.22;;;20.50;99.90;;;;;;4175663;28;20273;-77
2022/05/08 09:35:46;;;;;;;5.15;3.28;;;20.50;99.90;;;;;;4176991;28;20220;-76
2022/05/08 09:37:54;;;;;;;3.53;3.10;;;20.50;99.90;;;;;;4176012;28;20224;-76
2022/05/08 09:40:18;;;;;;;4.38;2.92;;;20.50;99.90;;;;;;4175947;28;20211;-76
2022/05/08 09:42:38;;;;;;;3.47;2.78;;;20.50;99.90;;;;;;4175794;28;20219;-76
2022/05/08 09:45:07;;;;;;;5.63;3.03;;;20.50;99.90;;;;;;4175605;28;20277;-76
2022/05/08 09:47:09;;;;;;;4.13;3.00;;;20.50;99.90;;;;;;4176147;28;20273;-76
2022/05/08 09:49:13;;;;;;;3.83;2.78;;;20.50;99.90;;;;;;4173581;28;20645;-76
2022/05/08 09:51:16;;;;;;;4.60;3.40;;;20.50;99.90;;;;;;4176403;28;20216;-76
2022/05/08 09:53:22;;;;;;;4.18;2.97;;;20.50;99.90;;;;;;4175828;28;20300;-76
2022/05/08 09:55:25;;;;;;;6.22;3.30;;;20.50;99.90;;;;;;4176752;28;20317;-76
2022/05/08 09:57:27;;;;;;;4.85;2.80;;;20.50;99.90;;;;;;4175506;28;20691;-76
2022/05/08 09:59:30;;;;;;;4.75;3.00;;;20.50;99.90;;;;;;4176196;28;20220;-77
2022/05/08 10:01:33;;;;;;;4.32;3.00;;;20.50;99.90;;;;;;4175950;28;20250;-76
2022/05/08 10:03:35;;;;;;;4.93;3.20;;;20.50;99.90;;;;;;4176392;28;20614;-76
2022/05/08 10:05:39;;;;;;;4.68;3.22;;;20.50;99.90;;;;;;4196539;28;20234;-76
2022/05/08 10:07:42;;;;;;;5.20;3.17;;;20.50;99.90;;;;;;4208750;28;20230;-76
2022/05/08 10:14:30;;;;;;;5.25;3.20;;;20.50;99.90;;;;;;4209275;28;20643;-76
2022/05/08 10:16:52;;;;;;;4.47;2.92;;;20.60;99.90;;;;;;4208857;28;20226;-76
2022/05/08 10:18:54;;;;;;;3.65;2.75;;;20.50;99.90;;;;;;4208800;28;20218;-76
2022/05/08 10:21:07;;;;;;;5.30;3.28;;;20.50;99.90;;;;;;4208724;28;20260;-76
2022/05/08 10:23:35;;;;;;;3.47;2.80;;;20.50;99.90;;;;;;4208975;28;20206;-76
2022/05/08 10:25:39;;;;;;;4.28;2.60;;;20.50;99.90;;;;;;4209317;28;20268;-76
2022/05/08 10:27:41;;;;;;;4.38;2.88;;;20.50;99.90;;;;;;4208032;28;20222;-76
2022/05/08 10:30:04;;;;;;;4.10;2.95;;;20.50;99.90;;;;;;4209061;28;20210;-76
2022/05/08 10:32:09;;;;;;;4.10;2.70;;;20.50;99.90;;;;;;4207275;28;20218;-76
2022/05/08 10:34:12;;;;;;;3.63;2.80;;;20.50;99.90;;;;;;4204367;28;20219;-76
2022/05/08 10:36:14;;;;;;;3.88;3.08;;;20.50;99.90;;;;;;4207374;28;20210;-76
2022/05/08 10:38:22;;;;;;;2.83;2.38;;;20.50;99.90;;;;;;4208605;28;20284;-77
2022/05/08 10:40:35;;;;;;;3.22;2.65;;;20.50;99.90;;;;;;4209424;28;21882;-76
2022/05/08 10:42:45;;;;;;;4.70;2.83;;;20.50;99.90;;;;;;4212347;28;20244;-76
2022/05/08 10:44:47;;;;;;;3.33;2.70;;;20.50;99.90;;;;;;4211554;28;20756;-76
2022/05/08 10:46:50;;;;;;;4.90;2.92;;;20.50;99.90;;;;;;4210844;28;20244;-76
2022/05/08 10:48:53;;;;;;;4.97;2.88;;;20.50;99.90;;;;;;4211271;28;20223;-76
2022/05/08 10:50:59;;;;;;;3.97;2.70;;;20.50;99.90;;;;;;4212203;28;20226;-76
2022/05/08 10:53:01;;;;;;;4.93;2.95;;;20.50;99.90;;;;;;4211832;28;20218;-76
2022/05/08 10:55:07;;;;;;;4.10;2.85;;;20.50;99.90;;;;;;4211692;28;20226;-76
2022/05/08 10:57:10;;;;;;;3.08;2.55;;;20.50;99.90;;;;;;4212106;28;20573;-76
2022/05/08 10:59:13;;;;;;;5.35;2.63;;;20.50;99.90;;;;;;4211826;28;20240;-76
2022/05/08 11:01:16;;;;;;;4.53;2.72;;;20.50;99.90;;;;;;4209777;28;20267;-76
2022/05/08 11:03:22;;;;;;;6.80;3.28;;;20.50;99.90;;;;;;4211510;28;20210;-76
2022/05/08 11:05:26;;;;;;;4.18;2.53;;;20.50;99.90;;;;;;4210846;28;20230;-76
2022/05/08 11:07:28;;;;;;;4.70;2.95;;;20.50;99.90;;;;;;4211037;28;20210;-76